sensor_id;sensor_type;location;lat;lon;timestamp;P1;P2;P0
64861;PMS5003;62652;42.274;-71.436;2022-09-03T00:00:03;0.90;0.90;0.67
64861;PMS5003;62652;42.274;-71.436;2022-09-03T00:01:03;1.00;1.00;0.00
64861;PMS5003;62652;42.274;-71.436;2022-09-03T00:02:02;1.93;1.93;0.93
64861;PMS5003;62652;42.274;-71.436;2022-09-03T00:03:02;1.77;1.77;0.90
64861;PMS5003;62652;42.274;-71.436;2022-09-03T00:04:01;0.93;0.87;0.07
64861;PMS5003;62652;42.274;-71.436;2022-09-03T00:05:02;1.20;0.77;0.60
64861;PMS5003;62652;42.274;-71.436;2022-09-03T00:06:02;1.00;1.00;1.00
64861;PMS5003;62652;42.274;-71.436;2022-09-03T00:07:02;0.87;0.87;0.53
64861;PMS5003;62652;42.274;-71.436;2022-09-03T00:08:01;2.03;1.60;1.00
64861;PMS5003;62652;42.274;-71.436;2022-09-03T00:09:02;0.63;0.17;0.17
64861;PMS5003;62652;42.274;-71.436;2022-09-03T00:10:02;0.80;0.73;0.73
64861;PMS5003;62652;42.274;-71.436;2022-09-03T00:11:02;1.10;1.00;0.47
64861;PMS5003;62652;42.274;-71.436;2022-09-03T00:12:01;1.67;1.67;1.20
64861;PMS5003;62652;42.274;-71.436;2022-09-03T00:13:00;1.53;1.07;0.70
64861;PMS5003;62652;42.274;-71.436;2022-09-03T00:14:03;0.63;0.63;0.00
64861;PMS5003;62652;42.274;-71.436;2022-09-03T00:15:01;0.90;0.90;0.90
64861;PMS5003;62652;42.274;-71.436;2022-09-03T00:16:00;1.80;1.47;1.27
64861;PMS5003;62652;42.274;-71.436;2022-09-03T00:17:01;0.93;0.93;0.57
64861;PMS5003;62652;42.274;-71.436;2022-09-03T00:18:01;1.57;1.57;0.87
64861;PMS5003;62652;42.274;-71.436;2022-09-03T00:19:00;0.30;0.30;0.17
64861;PMS5003;62652;42.274;-71.436;2022-09-03T00:20:00;0.80;0.80;0.53
64861;PMS5003;62652;42.274;-71.436;2022-09-03T00:21:01;0.00;0.00;0.00
64861;PMS5003;62652;42.274;-71.436;2022-09-03T00:22:02;2.80;2.00;1.60
64861;PMS5003;62652;42.274;-71.436;2022-09-03T00:23:02;2.00;2.00;1.40
64861;PMS5003;62652;42.274;-71.436;2022-09-03T00:24:00;1.13;1.13;0.83
64861;PMS5003;62652;42.274;-71.436;2022-09-03T00:25:01;1.20;1.20;1.10
64861;PMS5003;62652;42.274;-71.436;2022-09-03T00:26:05;1.27;1.27;0.80
64861;PMS5003;62652;42.274;-71.436;2022-09-03T00:27:00;1.30;1.30;0.87
64861;PMS5003;62652;42.274;-71.436;2022-09-03T00:28:01;0.87;0.87;0.53
64861;PMS5003;62652;42.274;-71.436;2022-09-03T00:29:02;1.17;1.17;0.87
64861;PMS5003;62652;42.274;-71.436;2022-09-03T00:30:00;1.70;1.70;1.50
64861;PMS5003;62652;42.274;-71.436;2022-09-03T00:31:04;1.67;1.37;1.03
64861;PMS5003;62652;42.274;-71.436;2022-09-03T00:32:02;1.57;1.57;1.17
64861;PMS5003;62652;42.274;-71.436;2022-09-03T00:33:01;1.00;1.00;0.70
64861;PMS5003;62652;42.274;-71.436;2022-09-03T00:34:01;2.57;2.57;1.70
64861;PMS5003;62652;42.274;-71.436;2022-09-03T00:35:01;2.77;2.03;1.90
64861;PMS5003;62652;42.274;-71.436;2022-09-03T00:36:04;3.00;3.00;2.00
64861;PMS5003;62652;42.274;-71.436;2022-09-03T00:37:00;1.47;1.47;1.37
64861;PMS5003;62652;42.274;-71.436;2022-09-03T00:38:00;2.33;2.33;1.97
64861;PMS5003;62652;42.274;-71.436;2022-09-03T00:39:00;1.80;1.80;1.50
64861;PMS5003;62652;42.274;-71.436;2022-09-03T00:40:00;1.87;1.87;1.07
64861;PMS5003;62652;42.274;-71.436;2022-09-03T00:41:03;2.23;2.23;1.80
64861;PMS5003;62652;42.274;-71.436;2022-09-03T00:42:04;1.87;1.87;0.87
64861;PMS5003;62652;42.274;-71.436;2022-09-03T00:43:01;2.17;2.17;1.40
64861;PMS5003;62652;42.274;-71.436;2022-09-03T00:44:05;1.37;0.63;0.57
64861;PMS5003;62652;42.274;-71.436;2022-09-03T00:45:04;0.77;0.77;0.67
64861;PMS5003;62652;42.274;-71.436;2022-09-03T00:46:02;1.17;1.17;0.97
64861;PMS5003;62652;42.274;-71.436;2022-09-03T00:47:03;0.77;0.77;0.47
64861;PMS5003;62652;42.274;-71.436;2022-09-03T00:48:03;1.27;1.27;0.83
64861;PMS5003;62652;42.274;-71.436;2022-09-03T00:49:07;1.00;1.00;0.33
64861;PMS5003;62652;42.274;-71.436;2022-09-03T00:50:03;1.10;1.10;1.00
64861;PMS5003;62652;42.274;-71.436;2022-09-03T00:51:03;1.30;1.30;0.87
64861;PMS5003;62652;42.274;-71.436;2022-09-03T00:52:02;1.07;1.07;0.73
64861;PMS5003;62652;42.274;-71.436;2022-09-03T00:53:02;0.83;0.83;0.47
64861;PMS5003;62652;42.274;-71.436;2022-09-03T00:54:02;1.33;1.00;1.00
64861;PMS5003;62652;42.274;-71.436;2022-09-03T00:55:02;1.97;1.97;1.17
64861;PMS5003;62652;42.274;-71.436;2022-09-03T00:56:03;1.83;1.83;1.17
64861;PMS5003;62652;42.274;-71.436;2022-09-03T00:57:11;0.97;0.97;0.50
64861;PMS5003;62652;42.274;-71.436;2022-09-03T00:58:05;1.93;1.00;1.00
64861;PMS5003;62652;42.274;-71.436;2022-09-03T00:59:03;1.43;1.43;1.00
64861;PMS5003;62652;42.274;-71.436;2022-09-03T01:00:03;1.33;1.33;1.00
64861;PMS5003;62652;42.274;-71.436;2022-09-03T01:01:00;0.67;0.67;0.67
64861;PMS5003;62652;42.274;-71.436;2022-09-03T01:02:02;0.87;0.87;0.77
64861;PMS5003;62652;42.274;-71.436;2022-09-03T01:03:02;1.87;1.87;1.00
64861;PMS5003;62652;42.274;-71.436;2022-09-03T01:04:02;1.00;1.00;0.80
64861;PMS5003;62652;42.274;-71.436;2022-09-03T01:05:01;1.53;1.53;1.03
64861;PMS5003;62652;42.274;-71.436;2022-09-03T01:06:03;2.60;2.13;1.40
64861;PMS5003;62652;42.274;-71.436;2022-09-03T01:07:02;1.93;1.93;1.70
64861;PMS5003;62652;42.274;-71.436;2022-09-03T01:08:04;1.47;1.17;1.00
64861;PMS5003;62652;42.274;-71.436;2022-09-03T01:09:02;1.27;1.00;1.00
64861;PMS5003;62652;42.274;-71.436;2022-09-03T01:10:02;1.90;1.90;1.10
64861;PMS5003;62652;42.274;-71.436;2022-09-03T01:11:01;2.57;2.57;2.27
64861;PMS5003;62652;42.274;-71.436;2022-09-03T01:12:02;0.83;0.83;0.67
64861;PMS5003;62652;42.274;-71.436;2022-09-03T01:13:01;1.03;1.03;0.93
64861;PMS5003;62652;42.274;-71.436;2022-09-03T01:14:02;1.03;0.73;0.50
64861;PMS5003;62652;42.274;-71.436;2022-09-03T01:15:03;1.20;1.20;0.90
64861;PMS5003;62652;42.274;-71.436;2022-09-03T01:16:03;1.00;1.00;1.00
64861;PMS5003;62652;42.274;-71.436;2022-09-03T01:17:01;1.77;1.77;1.33
64861;PMS5003;62652;42.274;-71.436;2022-09-03T01:18:03;1.90;1.90;1.00
64861;PMS5003;62652;42.274;-71.436;2022-09-03T01:19:02;1.13;1.13;1.00
64861;PMS5003;62652;42.274;-71.436;2022-09-03T01:20:02;1.13;1.13;0.80
64861;PMS5003;62652;42.274;-71.436;2022-09-03T01:21:06;0.83;0.73;0.63
64861;PMS5003;62652;42.274;-71.436;2022-09-03T01:22:05;2.00;0.93;0.67
64861;PMS5003;62652;42.274;-71.436;2022-09-03T01:23:05;1.27;1.27;1.00
64861;PMS5003;62652;42.274;-71.436;2022-09-03T01:25:09;2.23;1.70;1.33
64861;PMS5003;62652;42.274;-71.436;2022-09-03T01:26:02;1.57;1.57;1.17
64861;PMS5003;62652;42.274;-71.436;2022-09-03T01:27:04;1.50;0.73;0.50
64861;PMS5003;62652;42.274;-71.436;2022-09-03T01:28:03;2.37;2.37;1.57
64861;PMS5003;62652;42.274;-71.436;2022-09-03T01:29:02;1.73;1.73;0.90
64861;PMS5003;62652;42.274;-71.436;2022-09-03T01:30:02;2.03;2.03;1.70
64861;PMS5003;62652;42.274;-71.436;2022-09-03T01:31:01;2.47;2.47;1.97
64861;PMS5003;62652;42.274;-71.436;2022-09-03T01:32:00;1.10;1.10;0.80
64861;PMS5003;62652;42.274;-71.436;2022-09-03T01:33:01;1.80;1.30;1.00
64861;PMS5003;62652;42.274;-71.436;2022-09-03T01:34:03;1.37;1.37;1.10
64861;PMS5003;62652;42.274;-71.436;2022-09-03T01:35:01;1.57;1.57;0.93
64861;PMS5003;62652;42.274;-71.436;2022-09-03T01:36:02;1.17;0.70;0.30
64861;PMS5003;62652;42.274;-71.436;2022-09-03T01:37:03;1.70;1.70;1.40
64861;PMS5003;62652;42.274;-71.436;2022-09-03T01:38:05;1.80;1.80;1.00
64861;PMS5003;62652;42.274;-71.436;2022-09-03T01:39:01;1.87;1.87;1.10
64861;PMS5003;62652;42.274;-71.436;2022-09-03T01:40:02;1.77;1.77;1.77
64861;PMS5003;62652;42.274;-71.436;2022-09-03T01:41:03;0.87;0.87;0.47
64861;PMS5003;62652;42.274;-71.436;2022-09-03T01:42:01;1.83;1.83;1.30
64861;PMS5003;62652;42.274;-71.436;2022-09-03T01:43:05;1.00;1.00;0.40
64861;PMS5003;62652;42.274;-71.436;2022-09-03T01:44:01;2.20;2.20;1.70
64861;PMS5003;62652;42.274;-71.436;2022-09-03T01:45:04;1.53;1.53;1.10
64861;PMS5003;62652;42.274;-71.436;2022-09-03T01:46:01;0.93;0.93;0.67
64861;PMS5003;62652;42.274;-71.436;2022-09-03T01:47:02;1.63;1.63;1.33
64861;PMS5003;62652;42.274;-71.436;2022-09-03T01:48:03;0.93;0.30;0.30
64861;PMS5003;62652;42.274;-71.436;2022-09-03T01:49:01;1.90;1.90;0.80
64861;PMS5003;62652;42.274;-71.436;2022-09-03T01:50:02;1.27;1.27;1.00
64861;PMS5003;62652;42.274;-71.436;2022-09-03T01:51:02;2.13;2.03;1.40
64861;PMS5003;62652;42.274;-71.436;2022-09-03T01:52:01;2.10;2.10;1.80
64861;PMS5003;62652;42.274;-71.436;2022-09-03T01:53:03;2.00;2.00;1.50
64861;PMS5003;62652;42.274;-71.436;2022-09-03T01:54:07;1.57;1.20;0.90
64861;PMS5003;62652;42.274;-71.436;2022-09-03T01:55:03;1.77;1.47;1.37
64861;PMS5003;62652;42.274;-71.436;2022-09-03T01:56:10;2.70;2.70;2.00
64861;PMS5003;62652;42.274;-71.436;2022-09-03T01:58:01;2.50;1.63;1.07
64861;PMS5003;62652;42.274;-71.436;2022-09-03T01:59:01;2.30;2.30;1.77
64861;PMS5003;62652;42.274;-71.436;2022-09-03T02:00:02;1.87;1.87;1.57
64861;PMS5003;62652;42.274;-71.436;2022-09-03T02:01:01;2.23;2.23;1.57
64861;PMS5003;62652;42.274;-71.436;2022-09-03T02:02:01;3.03;2.33;1.03
64861;PMS5003;62652;42.274;-71.436;2022-09-03T02:03:01;1.77;1.77;1.30
64861;PMS5003;62652;42.274;-71.436;2022-09-03T02:04:00;1.63;1.03;0.93
64861;PMS5003;62652;42.274;-71.436;2022-09-03T02:05:01;1.37;1.37;1.00
64861;PMS5003;62652;42.274;-71.436;2022-09-03T02:06:00;3.27;2.70;2.00
64861;PMS5003;62652;42.274;-71.436;2022-09-03T02:07:00;2.17;2.17;1.77
64861;PMS5003;62652;42.274;-71.436;2022-09-03T02:08:01;2.20;2.20;1.83
64861;PMS5003;62652;42.274;-71.436;2022-09-03T02:09:00;2.40;2.03;1.73
64861;PMS5003;62652;42.274;-71.436;2022-09-03T02:10:00;2.57;2.57;2.00
64861;PMS5003;62652;42.274;-71.436;2022-09-03T02:11:00;2.80;2.80;2.10
64861;PMS5003;62652;42.274;-71.436;2022-09-03T02:12:02;4.07;4.00;3.00
64861;PMS5003;62652;42.274;-71.436;2022-09-03T02:13:01;4.57;4.57;3.37
64861;PMS5003;62652;42.274;-71.436;2022-09-03T02:14:00;5.13;5.13;3.70
64861;PMS5003;62652;42.274;-71.436;2022-09-03T02:15:01;5.10;5.10;3.90
64861;PMS5003;62652;42.274;-71.436;2022-09-03T02:16:02;4.93;4.77;3.77
64861;PMS5003;62652;42.274;-71.436;2022-09-03T02:17:02;5.70;5.70;4.87
64861;PMS5003;62652;42.274;-71.436;2022-09-03T02:18:00;6.10;6.10;4.80
64861;PMS5003;62652;42.274;-71.436;2022-09-03T02:19:01;5.27;5.27;4.63
64861;PMS5003;62652;42.274;-71.436;2022-09-03T02:20:01;6.43;5.73;4.33
64861;PMS5003;62652;42.274;-71.436;2022-09-03T02:21:00;6.13;5.60;4.73
64861;PMS5003;62652;42.274;-71.436;2022-09-03T02:22:00;6.73;6.73;5.23
64861;PMS5003;62652;42.274;-71.436;2022-09-03T02:23:00;7.30;6.37;4.93
64861;PMS5003;62652;42.274;-71.436;2022-09-03T02:24:00;6.17;5.83;5.30
64861;PMS5003;62652;42.274;-71.436;2022-09-03T02:25:00;4.80;4.80;3.87
64861;PMS5003;62652;42.274;-71.436;2022-09-03T02:26:01;5.63;5.63;4.93
64861;PMS5003;62652;42.274;-71.436;2022-09-03T02:27:00;5.83;5.70;4.73
64861;PMS5003;62652;42.274;-71.436;2022-09-03T02:28:00;5.70;5.50;5.00
64861;PMS5003;62652;42.274;-71.436;2022-09-03T02:29:00;5.20;4.93;3.53
64861;PMS5003;62652;42.274;-71.436;2022-09-03T02:30:00;6.90;6.07;4.10
64861;PMS5003;62652;42.274;-71.436;2022-09-03T02:31:00;5.03;4.57;3.40
64861;PMS5003;62652;42.274;-71.436;2022-09-03T02:32:00;4.93;4.93;4.13
64861;PMS5003;62652;42.274;-71.436;2022-09-03T02:33:00;5.60;5.60;4.20
64861;PMS5003;62652;42.274;-71.436;2022-09-03T02:34:00;5.67;5.23;3.57
64861;PMS5003;62652;42.274;-71.436;2022-09-03T02:35:00;4.80;4.80;3.80
64861;PMS5003;62652;42.274;-71.436;2022-09-03T02:36:00;7.00;6.80;5.17
64861;PMS5003;62652;42.274;-71.436;2022-09-03T02:37:00;4.87;4.87;3.70
64861;PMS5003;62652;42.274;-71.436;2022-09-03T02:38:08;4.97;4.70;4.03
64861;PMS5003;62652;42.274;-71.436;2022-09-03T02:39:00;5.30;5.00;4.10
64861;PMS5003;62652;42.274;-71.436;2022-09-03T02:40:00;4.87;4.87;3.67
64861;PMS5003;62652;42.274;-71.436;2022-09-03T02:41:00;4.67;4.53;3.80
64861;PMS5003;62652;42.274;-71.436;2022-09-03T02:42:00;5.53;5.53;4.33
64861;PMS5003;62652;42.274;-71.436;2022-09-03T02:43:00;3.93;3.87;2.77
64861;PMS5003;62652;42.274;-71.436;2022-09-03T02:44:01;4.17;4.17;3.57
64861;PMS5003;62652;42.274;-71.436;2022-09-03T02:45:02;3.47;3.47;3.00
64861;PMS5003;62652;42.274;-71.436;2022-09-03T02:46:00;3.80;3.80;2.67
64861;PMS5003;62652;42.274;-71.436;2022-09-03T02:47:01;3.60;2.97;2.80
64861;PMS5003;62652;42.274;-71.436;2022-09-03T02:48:00;2.97;2.97;2.23
64861;PMS5003;62652;42.274;-71.436;2022-09-03T02:49:00;1.90;1.90;1.43
64861;PMS5003;62652;42.274;-71.436;2022-09-03T02:50:00;3.50;3.50;2.60
64861;PMS5003;62652;42.274;-71.436;2022-09-03T02:51:00;3.23;3.10;2.20
64861;PMS5003;62652;42.274;-71.436;2022-09-03T02:52:01;2.97;2.57;2.00
64861;PMS5003;62652;42.274;-71.436;2022-09-03T02:53:00;4.03;3.80;3.13
64861;PMS5003;62652;42.274;-71.436;2022-09-03T02:54:00;4.50;4.10;3.07
64861;PMS5003;62652;42.274;-71.436;2022-09-03T02:55:00;2.70;2.70;2.20
64861;PMS5003;62652;42.274;-71.436;2022-09-03T02:56:00;3.00;3.00;2.00
64861;PMS5003;62652;42.274;-71.436;2022-09-03T02:57:00;3.80;3.57;2.67
64861;PMS5003;62652;42.274;-71.436;2022-09-03T02:58:00;3.30;3.30;2.10
64861;PMS5003;62652;42.274;-71.436;2022-09-03T02:59:00;2.73;2.73;1.90
64861;PMS5003;62652;42.274;-71.436;2022-09-03T03:00:00;2.83;2.80;1.90
64861;PMS5003;62652;42.274;-71.436;2022-09-03T03:01:00;2.37;2.37;1.63
64861;PMS5003;62652;42.274;-71.436;2022-09-03T03:02:00;3.53;2.87;2.17
64861;PMS5003;62652;42.274;-71.436;2022-09-03T03:03:00;2.33;2.33;2.13
64861;PMS5003;62652;42.274;-71.436;2022-09-03T03:04:00;3.00;2.90;2.30
64861;PMS5003;62652;42.274;-71.436;2022-09-03T03:05:00;2.87;2.87;2.50
64861;PMS5003;62652;42.274;-71.436;2022-09-03T03:06:01;3.63;3.63;2.83
64861;PMS5003;62652;42.274;-71.436;2022-09-03T03:07:00;3.33;3.33;2.30
64861;PMS5003;62652;42.274;-71.436;2022-09-03T03:08:00;3.63;3.03;2.70
64861;PMS5003;62652;42.274;-71.436;2022-09-03T03:09:00;3.87;3.87;3.50
64861;PMS5003;62652;42.274;-71.436;2022-09-03T03:10:00;3.77;3.23;2.80
64861;PMS5003;62652;42.274;-71.436;2022-09-03T03:11:00;4.10;4.10;3.37
64861;PMS5003;62652;42.274;-71.436;2022-09-03T03:12:00;4.30;4.30;3.10
64861;PMS5003;62652;42.274;-71.436;2022-09-03T03:13:00;5.10;4.13;3.13
64861;PMS5003;62652;42.274;-71.436;2022-09-03T03:14:00;4.63;3.87;3.40
64861;PMS5003;62652;42.274;-71.436;2022-09-03T03:15:00;5.50;5.20;3.63
64861;PMS5003;62652;42.274;-71.436;2022-09-03T03:16:00;4.47;4.47;3.83
64861;PMS5003;62652;42.274;-71.436;2022-09-03T03:17:00;4.70;4.67;3.63
64861;PMS5003;62652;42.274;-71.436;2022-09-03T03:18:00;4.77;4.57;4.00
64861;PMS5003;62652;42.274;-71.436;2022-09-03T03:19:00;4.70;4.70;4.00
64861;PMS5003;62652;42.274;-71.436;2022-09-03T03:20:00;4.30;4.30;3.23
64861;PMS5003;62652;42.274;-71.436;2022-09-03T03:21:02;3.83;3.83;3.03
64861;PMS5003;62652;42.274;-71.436;2022-09-03T03:22:00;3.70;3.43;2.83
64861;PMS5003;62652;42.274;-71.436;2022-09-03T03:23:00;4.33;3.87;3.50
64861;PMS5003;62652;42.274;-71.436;2022-09-03T03:24:00;4.80;4.80;3.73
64861;PMS5003;62652;42.274;-71.436;2022-09-03T03:25:00;4.67;4.67;3.80
64861;PMS5003;62652;42.274;-71.436;2022-09-03T03:26:00;3.30;3.23;1.50
64861;PMS5003;62652;42.274;-71.436;2022-09-03T03:27:00;4.00;4.00;3.30
64861;PMS5003;62652;42.274;-71.436;2022-09-03T03:28:00;5.10;5.00;4.00
64861;PMS5003;62652;42.274;-71.436;2022-09-03T03:29:00;4.23;3.83;2.83
64861;PMS5003;62652;42.274;-71.436;2022-09-03T03:30:00;3.50;3.50;2.53
64861;PMS5003;62652;42.274;-71.436;2022-09-03T03:31:04;3.60;3.50;3.03
64861;PMS5003;62652;42.274;-71.436;2022-09-03T03:32:00;3.40;3.40;3.23
64861;PMS5003;62652;42.274;-71.436;2022-09-03T03:33:00;4.20;4.20;3.00
64861;PMS5003;62652;42.274;-71.436;2022-09-03T03:34:01;3.10;2.53;2.23
64861;PMS5003;62652;42.274;-71.436;2022-09-03T03:35:00;3.63;3.33;2.60
64861;PMS5003;62652;42.274;-71.436;2022-09-03T03:36:02;3.27;3.17;2.17
64861;PMS5003;62652;42.274;-71.436;2022-09-03T03:37:00;3.17;3.17;2.70
64861;PMS5003;62652;42.274;-71.436;2022-09-03T03:38:00;4.40;4.40;3.53
64861;PMS5003;62652;42.274;-71.436;2022-09-03T03:39:00;3.07;3.07;1.93
64861;PMS5003;62652;42.274;-71.436;2022-09-03T03:40:00;3.67;3.67;2.67
64861;PMS5003;62652;42.274;-71.436;2022-09-03T03:41:05;4.00;3.70;3.00
64861;PMS5003;62652;42.274;-71.436;2022-09-03T03:42:00;4.10;4.10;3.00
64861;PMS5003;62652;42.274;-71.436;2022-09-03T03:43:00;4.07;4.07;3.00
64861;PMS5003;62652;42.274;-71.436;2022-09-03T03:44:00;3.47;3.47;2.57
64861;PMS5003;62652;42.274;-71.436;2022-09-03T03:45:00;4.10;4.00;3.33
64861;PMS5003;62652;42.274;-71.436;2022-09-03T03:46:00;4.17;4.17;3.77
64861;PMS5003;62652;42.274;-71.436;2022-09-03T03:47:00;3.70;3.70;3.00
64861;PMS5003;62652;42.274;-71.436;2022-09-03T03:48:00;4.07;4.07;3.00
64861;PMS5003;62652;42.274;-71.436;2022-09-03T03:49:00;4.00;3.70;3.17
64861;PMS5003;62652;42.274;-71.436;2022-09-03T03:50:00;4.37;4.27;3.30
64861;PMS5003;62652;42.274;-71.436;2022-09-03T03:51:00;5.60;5.20;3.97
64861;PMS5003;62652;42.274;-71.436;2022-09-03T03:52:00;5.67;5.13;4.17
64861;PMS5003;62652;42.274;-71.436;2022-09-03T03:53:00;4.77;4.77;3.67
64861;PMS5003;62652;42.274;-71.436;2022-09-03T03:54:00;4.77;4.77;3.87
64861;PMS5003;62652;42.274;-71.436;2022-09-03T03:55:00;5.40;4.53;3.83
64861;PMS5003;62652;42.274;-71.436;2022-09-03T03:56:01;3.30;3.30;2.93
64861;PMS5003;62652;42.274;-71.436;2022-09-03T03:57:00;4.53;4.53;3.47
64861;PMS5003;62652;42.274;-71.436;2022-09-03T03:58:00;5.37;4.17;4.07
64861;PMS5003;62652;42.274;-71.436;2022-09-03T03:59:00;4.17;4.17;3.33
64861;PMS5003;62652;42.274;-71.436;2022-09-03T04:00:00;4.80;4.10;3.60
64861;PMS5003;62652;42.274;-71.436;2022-09-03T04:01:03;4.90;4.57;3.30
64861;PMS5003;62652;42.274;-71.436;2022-09-03T04:02:00;5.47;4.83;3.27
64861;PMS5003;62652;42.274;-71.436;2022-09-03T04:03:00;4.60;4.60;3.93
64861;PMS5003;62652;42.274;-71.436;2022-09-03T04:04:00;4.43;4.07;2.97
64861;PMS5003;62652;42.274;-71.436;2022-09-03T04:05:00;4.57;4.57;3.23
64861;PMS5003;62652;42.274;-71.436;2022-09-03T04:06:00;4.97;4.37;3.73
64861;PMS5003;62652;42.274;-71.436;2022-09-03T04:07:00;4.17;4.17;3.60
64861;PMS5003;62652;42.274;-71.436;2022-09-03T04:08:00;4.17;3.70;3.07
64861;PMS5003;62652;42.274;-71.436;2022-09-03T04:09:00;3.83;3.83;2.87
64861;PMS5003;62652;42.274;-71.436;2022-09-03T04:10:00;3.60;3.60;2.67
64861;PMS5003;62652;42.274;-71.436;2022-09-03T04:11:00;5.00;4.80;3.90
64861;PMS5003;62652;42.274;-71.436;2022-09-03T04:12:00;5.50;5.17;3.90
64861;PMS5003;62652;42.274;-71.436;2022-09-03T04:13:00;3.73;3.73;2.97
64861;PMS5003;62652;42.274;-71.436;2022-09-03T04:14:01;5.17;4.23;3.33
64861;PMS5003;62652;42.274;-71.436;2022-09-03T04:15:00;5.17;5.00;4.90
64861;PMS5003;62652;42.274;-71.436;2022-09-03T04:16:01;4.73;4.13;3.53
64861;PMS5003;62652;42.274;-71.436;2022-09-03T04:17:00;5.30;4.97;3.50
64861;PMS5003;62652;42.274;-71.436;2022-09-03T04:18:00;4.00;3.63;3.13
64861;PMS5003;62652;42.274;-71.436;2022-09-03T04:19:00;3.97;3.97;3.50
64861;PMS5003;62652;42.274;-71.436;2022-09-03T04:20:00;5.10;5.10;3.87
64861;PMS5003;62652;42.274;-71.436;2022-09-03T04:21:00;3.70;3.70;3.27
64861;PMS5003;62652;42.274;-71.436;2022-09-03T04:22:00;4.93;4.30;3.67
64861;PMS5003;62652;42.274;-71.436;2022-09-03T04:23:00;4.80;4.80;3.90
64861;PMS5003;62652;42.274;-71.436;2022-09-03T04:24:03;6.67;6.40;4.90
64861;PMS5003;62652;42.274;-71.436;2022-09-03T04:25:00;5.47;5.13;3.67
64861;PMS5003;62652;42.274;-71.436;2022-09-03T04:26:00;4.13;4.13;3.53
64861;PMS5003;62652;42.274;-71.436;2022-09-03T04:27:00;5.17;5.10;4.00
64861;PMS5003;62652;42.274;-71.436;2022-09-03T04:28:00;4.37;4.23;2.97
64861;PMS5003;62652;42.274;-71.436;2022-09-03T04:29:01;5.30;4.53;3.90
64861;PMS5003;62652;42.274;-71.436;2022-09-03T04:30:00;4.87;4.17;4.00
64861;PMS5003;62652;42.274;-71.436;2022-09-03T04:31:00;6.30;6.30;5.20
64861;PMS5003;62652;42.274;-71.436;2022-09-03T04:32:00;3.50;3.50;2.70
64861;PMS5003;62652;42.274;-71.436;2022-09-03T04:33:00;4.53;4.13;3.77
64861;PMS5003;62652;42.274;-71.436;2022-09-03T04:34:00;5.30;5.30;4.60
64861;PMS5003;62652;42.274;-71.436;2022-09-03T04:35:00;3.93;3.93;3.00
64861;PMS5003;62652;42.274;-71.436;2022-09-03T04:36:02;4.87;4.87;3.87
64861;PMS5003;62652;42.274;-71.436;2022-09-03T04:37:00;5.40;5.40;3.77
64861;PMS5003;62652;42.274;-71.436;2022-09-03T04:38:00;4.90;4.90;3.57
64861;PMS5003;62652;42.274;-71.436;2022-09-03T04:39:00;4.80;4.70;3.80
64861;PMS5003;62652;42.274;-71.436;2022-09-03T04:40:00;4.93;4.90;3.83
64861;PMS5003;62652;42.274;-71.436;2022-09-03T04:41:00;6.13;6.13;4.07
64861;PMS5003;62652;42.274;-71.436;2022-09-03T04:42:00;5.67;5.67;4.23
64861;PMS5003;62652;42.274;-71.436;2022-09-03T04:43:00;5.50;5.50;4.40
64861;PMS5003;62652;42.274;-71.436;2022-09-03T04:44:00;4.97;4.90;3.63
64861;PMS5003;62652;42.274;-71.436;2022-09-03T04:45:00;5.70;5.50;4.33
64861;PMS5003;62652;42.274;-71.436;2022-09-03T04:46:01;4.70;4.70;3.47
64861;PMS5003;62652;42.274;-71.436;2022-09-03T04:47:00;5.07;4.20;3.67
64861;PMS5003;62652;42.274;-71.436;2022-09-03T04:48:00;4.20;4.20;3.30
64861;PMS5003;62652;42.274;-71.436;2022-09-03T04:49:00;6.33;6.33;5.53
64861;PMS5003;62652;42.274;-71.436;2022-09-03T04:50:00;5.57;5.57;5.00
64861;PMS5003;62652;42.274;-71.436;2022-09-03T04:51:01;5.10;3.80;2.77
64861;PMS5003;62652;42.274;-71.436;2022-09-03T04:52:00;5.80;5.63;4.47
64861;PMS5003;62652;42.274;-71.436;2022-09-03T04:53:00;6.20;5.87;5.47
64861;PMS5003;62652;42.274;-71.436;2022-09-03T04:54:00;5.43;4.93;4.23
64861;PMS5003;62652;42.274;-71.436;2022-09-03T04:55:00;6.13;6.00;5.00
64861;PMS5003;62652;42.274;-71.436;2022-09-03T04:56:00;6.33;5.93;4.93
64861;PMS5003;62652;42.274;-71.436;2022-09-03T04:57:00;5.93;5.93;4.37
64861;PMS5003;62652;42.274;-71.436;2022-09-03T04:58:00;4.70;4.70;3.60
64861;PMS5003;62652;42.274;-71.436;2022-09-03T04:59:01;5.57;5.50;3.57
64861;PMS5003;62652;42.274;-71.436;2022-09-03T05:00:00;5.83;5.30;4.33
64861;PMS5003;62652;42.274;-71.436;2022-09-03T05:01:06;5.33;5.33;4.33
64861;PMS5003;62652;42.274;-71.436;2022-09-03T05:02:00;6.03;5.23;4.73
64861;PMS5003;62652;42.274;-71.436;2022-09-03T05:03:00;5.60;5.40;4.20
64861;PMS5003;62652;42.274;-71.436;2022-09-03T05:04:00;5.57;5.57;4.43
64861;PMS5003;62652;42.274;-71.436;2022-09-03T05:05:00;4.07;4.07;3.50
64861;PMS5003;62652;42.274;-71.436;2022-09-03T05:06:00;7.33;6.07;4.50
64861;PMS5003;62652;42.274;-71.436;2022-09-03T05:07:00;4.27;4.27;3.03
64861;PMS5003;62652;42.274;-71.436;2022-09-03T05:08:00;5.60;4.33;3.80
64861;PMS5003;62652;42.274;-71.436;2022-09-03T05:09:00;5.07;5.07;3.77
64861;PMS5003;62652;42.274;-71.436;2022-09-03T05:10:00;4.53;4.40;3.87
64861;PMS5003;62652;42.274;-71.436;2022-09-03T05:11:00;5.97;5.97;4.10
64861;PMS5003;62652;42.274;-71.436;2022-09-03T05:12:00;5.73;5.40;4.93
64861;PMS5003;62652;42.274;-71.436;2022-09-03T05:13:00;4.97;4.33;3.73
64861;PMS5003;62652;42.274;-71.436;2022-09-03T05:14:00;4.67;4.20;3.30
64861;PMS5003;62652;42.274;-71.436;2022-09-03T05:15:00;6.33;6.23;4.93
64861;PMS5003;62652;42.274;-71.436;2022-09-03T05:16:00;4.50;4.50;3.20
64861;PMS5003;62652;42.274;-71.436;2022-09-03T05:17:00;4.37;4.07;3.57
64861;PMS5003;62652;42.274;-71.436;2022-09-03T05:18:00;6.80;6.70;4.70
64861;PMS5003;62652;42.274;-71.436;2022-09-03T05:19:00;5.63;5.63;4.33
64861;PMS5003;62652;42.274;-71.436;2022-09-03T05:20:00;4.57;4.40;3.60
64861;PMS5003;62652;42.274;-71.436;2022-09-03T05:21:00;6.03;5.77;4.87
64861;PMS5003;62652;42.274;-71.436;2022-09-03T05:22:00;6.10;4.83;3.93
64861;PMS5003;62652;42.274;-71.436;2022-09-03T05:23:00;5.83;5.83;4.67
64861;PMS5003;62652;42.274;-71.436;2022-09-03T05:24:00;5.63;4.33;3.80
64861;PMS5003;62652;42.274;-71.436;2022-09-03T05:25:00;6.83;6.23;4.97
64861;PMS5003;62652;42.274;-71.436;2022-09-03T05:26:00;5.03;4.83;3.13
64861;PMS5003;62652;42.274;-71.436;2022-09-03T05:27:00;5.03;5.03;3.90
64861;PMS5003;62652;42.274;-71.436;2022-09-03T05:28:00;5.17;4.53;3.90
64861;PMS5003;62652;42.274;-71.436;2022-09-03T05:29:00;5.53;5.53;4.97
64861;PMS5003;62652;42.274;-71.436;2022-09-03T05:30:00;4.57;4.53;2.87
64861;PMS5003;62652;42.274;-71.436;2022-09-03T05:31:00;5.53;5.27;4.47
64861;PMS5003;62652;42.274;-71.436;2022-09-03T05:32:00;5.63;5.63;4.57
64861;PMS5003;62652;42.274;-71.436;2022-09-03T05:33:00;6.53;6.43;4.73
64861;PMS5003;62652;42.274;-71.436;2022-09-03T05:34:00;4.90;4.90;4.00
64861;PMS5003;62652;42.274;-71.436;2022-09-03T05:35:00;4.53;4.40;3.90
64861;PMS5003;62652;42.274;-71.436;2022-09-03T05:36:00;5.67;5.07;4.87
64861;PMS5003;62652;42.274;-71.436;2022-09-03T05:37:00;3.90;3.90;3.63
64861;PMS5003;62652;42.274;-71.436;2022-09-03T05:38:00;5.67;4.77;3.87
64861;PMS5003;62652;42.274;-71.436;2022-09-03T05:39:00;5.00;4.90;3.93
64861;PMS5003;62652;42.274;-71.436;2022-09-03T05:40:00;4.83;4.67;3.97
64861;PMS5003;62652;42.274;-71.436;2022-09-03T05:41:00;5.80;5.63;4.37
64861;PMS5003;62652;42.274;-71.436;2022-09-03T05:42:00;5.60;5.60;4.10
64861;PMS5003;62652;42.274;-71.436;2022-09-03T05:43:00;4.30;4.00;3.00